createdAt,value
2023-02-03T00:00:08.226Z,100653.97
2023-02-03T00:02:36.164Z,100649.88
2023-02-03T00:05:03.407Z,100643.13
2023-02-03T00:07:30.261Z,100647.63
2023-02-03T00:09:58.036Z,100637.78
2023-02-03T00:12:24.771Z,100641.38
2023-02-03T00:14:51.523Z,100629.69
2023-02-03T00:17:21.316Z,100633.19
2023-02-03T00:19:48.274Z,100639.22
2023-02-03T00:22:14.930Z,100632.88
2023-02-03T00:24:42.134Z,100642.94
2023-02-03T00:27:08.817Z,100643.47
2023-02-03T00:29:35.561Z,100641.78
2023-02-03T00:32:02.448Z,100629.94
2023-02-03T00:34:30.471Z,100618.69
2023-02-03T00:36:57.895Z,100610.34
2023-02-03T00:39:24.612Z,100600.34
2023-02-03T00:41:51.435Z,100597.19
2023-02-03T00:44:18.140Z,100592.47
2023-02-03T00:46:44.989Z,100605.69
2023-02-03T00:49:12.161Z,100601.69
2023-02-03T00:51:38.833Z,100605.75
2023-02-03T00:54:06.864Z,100603.44
2023-02-03T00:56:33.633Z,100610.09
2023-02-03T00:59:03.183Z,100611.47
2023-02-03T01:01:30.406Z,100612.16
2023-02-03T01:03:57.184Z,100618.34
2023-02-03T01:06:24.271Z,100619.84
2023-02-03T01:08:51.284Z,100635.91
2023-02-03T01:11:28.162Z,100628.88
2023-02-03T01:13:56.905Z,100629.56
2023-02-03T01:16:24.649Z,100628.22
2023-02-03T01:18:52.346Z,100628.22
2023-02-03T01:21:22.616Z,100618.19
2023-02-03T01:23:51.062Z,100624.22
2023-02-03T01:26:27.040Z,100614.97
2023-02-03T01:28:55.832Z,100613.00
2023-02-03T01:31:28.909Z,100605.97
2023-02-03T01:33:56.522Z,100596.44
2023-02-03T01:36:25.895Z,100588.78
2023-02-03T01:38:53.953Z,100583.06
2023-02-03T01:41:25.347Z,100583.06
2023-02-03T01:43:56.563Z,100573.00
2023-02-03T01:46:35.265Z,100567.66
2023-02-03T01:49:12.488Z,100562.97
2023-02-03T01:51:41.908Z,100559.94
2023-02-03T01:54:19.797Z,100547.50
2023-02-03T01:56:52.814Z,100551.66
2023-02-03T01:59:22.439Z,100553.66
2023-02-03T02:01:54.210Z,100572.84
2023-02-03T02:04:23.214Z,100597.44
2023-02-03T02:06:51.946Z,100578.56
2023-02-03T02:09:19.063Z,100572.75
2023-02-03T02:11:45.787Z,100570.41
2023-02-03T02:14:16.032Z,100566.03
2023-02-03T02:17:12.721Z,100562.53
2023-02-03T02:22:26.050Z,100570.25
2023-02-03T02:25:14.691Z,100563.53
2023-02-03T02:27:53.369Z,100565.56
2023-02-03T02:30:20.249Z,100549.94
2023-02-03T02:32:58.706Z,100563.13
2023-02-03T02:35:41.942Z,100552.13
2023-02-03T02:38:33.647Z,100549.81
2023-02-03T02:41:16.430Z,100546.13
2023-02-03T02:43:50.227Z,100549.47
2023-02-03T02:46:31.485Z,100541.28
2023-02-03T02:49:03.672Z,100544.13
2023-02-03T02:51:33.265Z,100546.13
2023-02-03T02:54:05.049Z,100554.97
2023-02-03T02:56:35.150Z,100549.66
2023-02-03T02:59:05.752Z,100538.44
2023-02-03T03:01:32.782Z,100539.13
2023-02-03T03:04:03.772Z,100556.19
2023-02-03T03:06:38.189Z,100558.91
2023-02-03T03:09:13.012Z,100568.28
2023-02-03T03:11:41.872Z,100579.66
2023-02-03T03:14:12.024Z,100560.25
2023-02-03T03:16:41.912Z,100556.59
2023-02-03T03:19:18.680Z,100560.56
2023-02-03T03:21:49.752Z,100565.94
2023-02-03T03:24:21.728Z,100563.59
2023-02-03T03:26:57.455Z,100555.59
2023-02-03T03:29:41.967Z,100552.22
2023-02-03T03:32:09.354Z,100557.75
2023-02-03T03:34:36.248Z,100551.44
2023-02-03T03:37:14.121Z,100555.06
2023-02-03T03:39:41.042Z,100567.91
2023-02-03T03:42:19.232Z,100553.34
2023-02-03T03:44:57.195Z,100565.72
2023-02-03T03:47:29.879Z,100559.16
2023-02-03T03:50:00.342Z,100563.84
2023-02-03T03:52:32.641Z,100555.66
2023-02-03T03:55:02.331Z,100553.50
2023-02-03T03:57:37.919Z,100545.78
2023-02-03T04:00:09.948Z,100545.94
2023-02-03T04:05:07.708Z,100534.72
2023-02-03T04:10:23.001Z,100539.38
2023-02-03T04:12:49.666Z,100540.75
2023-02-03T04:15:17.335Z,100539.22
2023-02-03T04:17:44.391Z,100533.03
2023-02-03T04:20:11.830Z,100545.72
2023-02-03T04:22:38.873Z,100530.41
2023-02-03T04:25:06.338Z,100520.03
2023-02-03T04:27:33.178Z,100522.72
2023-02-03T04:30:00.041Z,100525.84
2023-02-03T04:32:26.898Z,100510.66
2023-02-03T04:34:53.669Z,100524.03
2023-02-03T04:37:21.344Z,100539.22
2023-02-03T04:39:49.360Z,100538.44
2023-02-03T04:42:16.084Z,100560.84
2023-02-03T04:44:42.716Z,100567.19
2023-02-03T04:47:09.397Z,100568.94
2023-02-03T04:49:36.317Z,100565.56
2023-02-03T04:52:03.005Z,100553.03
2023-02-03T04:54:29.681Z,100549.69
2023-02-03T04:56:56.442Z,100552.00
2023-02-03T04:59:23.174Z,100552.84
2023-02-03T05:01:53.272Z,100541.28
2023-02-03T05:04:19.982Z,100535.63
2023-02-03T05:06:46.684Z,100538.16
2023-02-03T05:09:13.517Z,100546.34
2023-02-03T05:14:06.850Z,100541.94
2023-02-03T05:16:33.702Z,100548.28
2023-02-03T05:19:00.405Z,100548.44
2023-02-03T05:21:27.901Z,100545.63
2023-02-03T05:23:54.640Z,100546.63
2023-02-03T05:26:21.418Z,100540.13
2023-02-03T05:28:48.081Z,100522.56
2023-02-03T05:31:15.004Z,100521.41
2023-02-03T05:33:41.873Z,100524.69
2023-02-03T05:36:09.183Z,100511.34
2023-02-03T05:38:35.895Z,100516.31
2023-02-03T05:41:21.323Z,100528.28
2023-02-03T05:43:48.362Z,100526.94
2023-02-03T05:46:15.313Z,100523.63
2023-02-03T05:48:42.079Z,100504.91
2023-02-03T05:51:08.778Z,100504.53
2023-02-03T05:53:35.510Z,100486.66
2023-02-03T05:56:05.558Z,100487.34
2023-02-03T05:58:35.823Z,100483.00
2023-02-03T06:01:08.666Z,100487.19
2023-02-03T06:03:35.586Z,100483.91
2023-02-03T06:06:02.522Z,100483.84
2023-02-03T06:08:29.347Z,100483.22
2023-02-03T06:11:01.107Z,100479.91
2023-02-03T06:13:28.613Z,100481.75
2023-02-03T06:15:56.370Z,100486.78
2023-02-03T06:18:23.532Z,100482.75
2023-02-03T06:20:51.135Z,100488.63
2023-02-03T06:23:23.174Z,100491.63
2023-02-03T06:25:51.624Z,100493.50
2023-02-03T06:28:18.869Z,100486.50
2023-02-03T06:30:45.705Z,100480.19
2023-02-03T06:33:12.464Z,100478.00
2023-02-03T06:35:39.130Z,100474.16
2023-02-03T06:38:08.779Z,100462.09
2023-02-03T06:40:35.479Z,100440.84
2023-02-03T06:43:02.302Z,100438.53
2023-02-03T06:45:29.130Z,100433.53
2023-02-03T06:47:55.832Z,100443.06
2023-02-03T06:50:23.072Z,100450.94
2023-02-03T06:52:50.847Z,100469.81
2023-02-03T06:55:17.618Z,100469.97
2023-02-03T06:57:45.759Z,100470.66
2023-02-03T07:00:16.162Z,100473.50
2023-02-03T07:02:44.366Z,100485.56
2023-02-03T07:05:11.190Z,100507.28
2023-02-03T07:07:39.661Z,100505.63
2023-02-03T07:10:07.517Z,100506.97
2023-02-03T07:12:34.271Z,100527.91
2023-02-03T07:15:00.897Z,100521.53
2023-02-03T07:17:27.740Z,100524.91
2023-02-03T07:19:54.410Z,100518.38
2023-02-03T07:22:21.122Z,100508.84
2023-02-03T07:24:47.838Z,100512.84
2023-02-03T07:27:14.596Z,100536.59
2023-02-03T07:29:41.060Z,100527.41
2023-02-03T07:32:07.784Z,100518.88
2023-02-03T07:34:34.488Z,100505.97
2023-02-03T07:37:01.149Z,100494.97
2023-02-03T07:39:27.843Z,100492.44
2023-02-03T07:41:54.477Z,100494.13
2023-02-03T07:44:21.224Z,100504.50
2023-02-03T07:46:47.928Z,100498.81
2023-02-03T07:49:15.423Z,100523.59
2023-02-03T07:51:42.090Z,100515.41
2023-02-03T07:54:08.784Z,100520.22
2023-02-03T07:56:36.427Z,100507.19
2023-02-03T07:59:03.492Z,100518.22
2023-02-03T08:01:31.549Z,100513.88
2023-02-03T08:03:58.307Z,100507.03
2023-02-03T08:06:24.987Z,100520.91
2023-02-03T08:08:51.701Z,100514.56
2023-02-03T08:11:18.483Z,100516.41
2023-02-03T08:13:45.139Z,100502.31
2023-02-03T08:16:11.874Z,100502.16
2023-02-03T08:18:38.597Z,100501.66
2023-02-03T08:21:05.503Z,100496.66
2023-02-03T08:23:32.439Z,100502.84
2023-02-03T08:25:59.074Z,100500.00
2023-02-03T08:28:25.857Z,100503.81
2023-02-03T08:30:52.693Z,100502.66
2023-02-03T08:33:19.445Z,100506.50
2023-02-03T08:35:47.700Z,100504.16
2023-02-03T08:38:14.498Z,100499.47
2023-02-03T08:40:42.042Z,100487.75
2023-02-03T08:43:08.912Z,100500.66
2023-02-03T08:45:35.705Z,100496.47
2023-02-03T08:48:06.077Z,100479.38
2023-02-03T08:50:32.775Z,100501.31
2023-02-03T08:52:59.808Z,100519.56
2023-02-03T08:55:26.901Z,100484.06
2023-02-03T08:57:53.681Z,100486.06
2023-02-03T09:00:21.078Z,100490.59
2023-02-03T09:02:47.753Z,100493.75
2023-02-03T09:05:16.153Z,100462.91
2023-02-03T09:07:42.926Z,100463.56
2023-02-03T09:10:10.669Z,100465.88
2023-02-03T09:15:07.426Z,100471.19
2023-02-03T09:17:34.172Z,100465.63
2023-02-03T09:20:01.212Z,100462.13
2023-02-03T09:22:27.842Z,100461.09
2023-02-03T09:24:54.670Z,100444.59
2023-02-03T09:27:21.411Z,100435.84
2023-02-03T09:29:48.103Z,100438.66
2023-02-03T09:32:15.799Z,100430.53
2023-02-03T09:34:44.194Z,100468.69
2023-02-03T09:37:10.849Z,100429.41
2023-02-03T09:39:37.610Z,100429.41
2023-02-03T09:42:14.972Z,100447.06
2023-02-03T09:44:49.335Z,100473.38
2023-02-03T09:47:23.642Z,100450.75
2023-02-03T09:50:00.526Z,100469.03
2023-02-03T09:52:34.165Z,100456.66
2023-02-03T09:55:34.172Z,100451.97
2023-02-03T09:58:03.954Z,100453.81
2023-02-03T10:00:36.342Z,100455.09
2023-02-03T10:03:11.319Z,100462.66
2023-02-03T10:05:41.157Z,100467.41
2023-02-03T10:08:18.364Z,100458.47
2023-02-03T10:11:09.925Z,100455.97
2023-02-03T10:13:42.153Z,100445.25
2023-02-03T10:16:41.206Z,100427.47
2023-02-03T10:19:14.549Z,100423.78
2023-02-03T10:21:42.107Z,100428.31
2023-02-03T10:27:15.322Z,100423.44
2023-02-03T10:29:43.418Z,100420.75
2023-02-03T10:32:13.670Z,100403.59
2023-02-03T10:34:41.237Z,100404.59
2023-02-03T10:37:37.202Z,100410.16
2023-02-03T10:40:05.078Z,100405.63
2023-02-03T10:45:11.078Z,100411.63
2023-02-03T10:47:42.151Z,100411.16
2023-02-03T10:50:18.581Z,100425.09
2023-02-03T10:52:45.546Z,100417.34
2023-02-03T10:55:23.185Z,100418.69
2023-02-03T10:57:50.475Z,100420.41
2023-02-03T11:00:28.587Z,100409.47
2023-02-03T11:03:08.935Z,100412.00
2023-02-03T11:05:36.064Z,100393.88
2023-02-03T11:08:02.943Z,100394.69
2023-02-03T11:10:34.469Z,100372.69
2023-02-03T11:13:19.557Z,100364.25
2023-02-03T11:16:05.005Z,100368.91
2023-02-03T11:18:42.311Z,100364.06
2023-02-03T11:21:18.275Z,100366.25
2023-02-03T11:23:53.268Z,100358.00
2023-02-03T11:26:24.579Z,100351.78
2023-02-03T11:28:55.756Z,100350.75
2023-02-03T11:31:29.334Z,100355.78
2023-02-03T11:34:00.393Z,100363.66
2023-02-03T11:36:29.534Z,100354.19
2023-02-03T11:39:18.458Z,100362.72
2023-02-03T11:41:46.096Z,100368.09
2023-02-03T11:44:21.960Z,100369.19
2023-02-03T11:46:52.630Z,100377.06
2023-02-03T11:49:31.223Z,100395.22
2023-02-03T11:52:10.016Z,100389.00
2023-02-03T11:54:42.285Z,100376.94
2023-02-03T11:57:25.116Z,100357.50
2023-02-03T12:00:10.869Z,100324.94
2023-02-03T12:02:42.306Z,100329.66
2023-02-03T12:08:42.201Z,100324.56
2023-02-03T12:11:14.801Z,100318.00
2023-02-03T12:13:48.255Z,100306.06
2023-02-03T12:16:39.051Z,100307.34
2023-02-03T12:19:22.084Z,100301.72
2023-02-03T12:21:57.806Z,100295.50
2023-02-03T12:24:39.577Z,100297.34
2023-02-03T12:30:22.584Z,100275.75
2023-02-03T12:32:54.133Z,100278.56
2023-02-03T12:35:32.044Z,100274.22
2023-02-03T12:38:07.493Z,100277.91
2023-02-03T12:40:42.229Z,100275.47
2023-02-03T12:43:22.541Z,100301.63
2023-02-03T12:46:01.031Z,100277.66
2023-02-03T12:48:38.483Z,100274.63
2023-02-03T12:51:12.518Z,100259.50
2023-02-03T12:53:41.277Z,100282.16
2023-02-03T12:56:12.330Z,100306.31
2023-02-03T12:58:42.403Z,100295.34
2023-02-03T13:01:24.888Z,100295.75
2023-02-03T13:04:01.695Z,100291.75
2023-02-03T13:06:38.727Z,100299.72
2023-02-03T13:09:28.495Z,100306.84
2023-02-03T13:12:27.633Z,100301.50
2023-02-03T13:15:16.036Z,100305.34
2023-02-03T13:17:49.927Z,100288.78
2023-02-03T13:20:21.579Z,100269.81
2023-02-03T13:22:48.309Z,100279.38
2023-02-03T13:25:27.245Z,100278.00
2023-02-03T13:28:09.483Z,100258.63
2023-02-03T13:30:41.311Z,100268.63
2023-02-03T13:36:10.041Z,100259.94
2023-02-03T13:38:42.434Z,100275.19
2023-02-03T13:41:42.205Z,100273.38
2023-02-03T13:44:14.598Z,100267.84
2023-02-03T13:49:08.977Z,100246.09
2023-02-03T13:51:41.282Z,100250.44
2023-02-03T13:54:16.552Z,100238.66
2023-02-03T13:57:02.783Z,100255.94
2023-02-03T13:59:42.344Z,100251.09
2023-02-03T14:02:27.559Z,100263.19
2023-02-03T14:04:56.977Z,100265.84
2023-02-03T14:07:38.846Z,100259.66
2023-02-03T14:10:05.459Z,100269.91
2023-02-03T14:12:34.480Z,100261.94
2023-02-03T14:15:19.401Z,100260.94
2023-02-03T14:17:46.555Z,100279.03
2023-02-03T14:20:25.632Z,100271.31
2023-02-03T14:23:01.993Z,100256.91
2023-02-03T14:25:29.868Z,100259.28
2023-02-03T14:28:06.775Z,100261.47
2023-02-03T14:30:34.299Z,100265.50
2023-02-03T14:33:05.471Z,100269.03
2023-02-03T14:35:35.268Z,100284.25
2023-02-03T14:38:14.531Z,100281.41
2023-02-03T14:40:42.272Z,100290.47
2023-02-03T14:43:25.246Z,100288.84
2023-02-03T14:46:00.944Z,100297.50
2023-02-03T14:48:39.556Z,100307.94
2023-02-03T14:51:21.560Z,100306.44
2023-02-03T14:53:57.831Z,100290.53
2023-02-03T14:56:42.221Z,100291.88
2023-02-03T14:59:11.013Z,100285.53
2023-02-03T15:01:38.013Z,100299.91
2023-02-03T15:04:13.756Z,100293.22
2023-02-03T15:06:41.340Z,100287.88
2023-02-03T15:09:39.111Z,100305.81
2023-02-03T15:12:42.258Z,100306.63
2023-02-03T15:15:24.692Z,100307.81
2023-02-03T15:17:54.412Z,100325.09
2023-02-03T15:20:35.496Z,100311.66
2023-02-03T15:23:03.304Z,100326.06
2023-02-03T15:25:33.099Z,100309.66
2023-02-03T15:28:14.125Z,100322.03
2023-02-03T15:30:42.355Z,100335.41
2023-02-03T15:33:16.645Z,100322.34
2023-02-03T15:35:46.707Z,100334.91
2023-02-03T15:38:20.204Z,100327.53
2023-02-03T15:40:54.801Z,100328.88
2023-02-03T15:43:32.367Z,100347.63
2023-02-03T15:46:31.123Z,100317.50
2023-02-03T15:49:06.053Z,100321.69
2023-02-03T15:51:42.297Z,100323.38
2023-02-03T15:57:11.766Z,100333.25
2023-02-03T15:59:46.508Z,100325.03
2023-02-03T16:02:30.595Z,100325.38
2023-02-03T16:04:58.282Z,100303.44
2023-02-03T16:07:30.367Z,100316.34
2023-02-03T16:09:58.617Z,100304.44
2023-02-03T16:12:33.690Z,100313.63
2023-02-03T16:15:03.508Z,100311.09
2023-02-03T16:17:35.801Z,100310.28
2023-02-03T16:20:28.551Z,100300.84
2023-02-03T16:23:07.809Z,100327.13
2023-02-03T16:25:35.187Z,100321.44
2023-02-03T16:28:36.214Z,100326.28
2023-02-03T16:31:32.579Z,100339.69
2023-02-03T16:34:20.376Z,100341.34
2023-02-03T16:37:07.091Z,100347.69
2023-02-03T16:42:34.069Z,100343.63
2023-02-03T16:45:19.809Z,100341.63
2023-02-03T16:48:06.143Z,100339.59
2023-02-03T16:53:14.944Z,100344.94
2023-02-03T16:55:45.373Z,100330.50
2023-02-03T16:58:16.604Z,100348.28
2023-02-03T17:00:45.654Z,100349.78
2023-02-03T17:03:15.456Z,100348.59
2023-02-03T17:05:44.372Z,100350.25
2023-02-03T17:08:11.748Z,100343.88
2023-02-03T17:10:39.995Z,100347.59
2023-02-03T17:13:10.852Z,100342.28
2023-02-03T17:15:45.021Z,100343.50
2023-02-03T17:18:15.075Z,100347.88
2023-02-03T17:20:43.035Z,100350.91
2023-02-03T17:23:19.217Z,100350.75
2023-02-03T17:25:51.873Z,100343.88
2023-02-03T17:28:26.013Z,100352.41
2023-02-03T17:31:03.088Z,100359.09
2023-02-03T17:33:31.514Z,100360.78
2023-02-03T17:36:08.067Z,100365.16
2023-02-03T17:54:47.485Z,100378.19
2023-02-03T17:57:14.369Z,100384.06
2023-02-03T18:02:09.734Z,100381.88
2023-02-03T18:04:36.379Z,100377.84
2023-02-03T18:07:03.298Z,100382.38
2023-02-03T18:09:30.468Z,100383.19
2023-02-03T18:11:58.399Z,100376.50
2023-02-03T18:14:26.224Z,100377.00
2023-02-03T18:16:55.144Z,100392.09
2023-02-03T18:19:24.753Z,100405.59
2023-02-03T18:21:55.253Z,100387.84
2023-02-03T18:24:28.119Z,100391.72
2023-02-03T18:26:55.161Z,100400.97
2023-02-03T18:29:22.465Z,100431.28
2023-02-03T18:31:49.159Z,100410.84
2023-02-03T18:34:17.247Z,100411.69
2023-02-03T18:36:45.204Z,100421.72
2023-02-03T18:39:14.493Z,100420.00
2023-02-03T18:44:09.702Z,100445.97
2023-02-03T18:46:36.464Z,100433.91
2023-02-03T18:49:03.511Z,100428.72
2023-02-03T18:51:30.291Z,100429.38
2023-02-03T18:53:59.007Z,100446.13
2023-02-03T18:56:27.819Z,100423.69
2023-02-03T18:58:54.738Z,100429.72
2023-02-03T19:01:30.777Z,100433.91
2023-02-03T19:04:00.342Z,100425.72
2023-02-03T19:06:33.662Z,100431.91
2023-02-03T19:09:01.038Z,100439.44
2023-02-03T19:11:28.160Z,100431.56
2023-02-03T19:13:55.012Z,100429.88
2023-02-03T19:16:24.857Z,100436.91
2023-02-03T19:18:51.743Z,100430.13
2023-02-03T19:21:21.550Z,100429.47
2023-02-03T19:23:48.358Z,100443.16
2023-02-03T19:26:15.037Z,100456.06
2023-02-03T19:28:48.913Z,100445.88
2023-02-03T19:31:19.112Z,100435.44
2023-02-03T19:33:45.850Z,100439.00
2023-02-03T19:36:13.220Z,100432.78
2023-02-03T19:38:40.042Z,100448.03
2023-02-03T19:41:08.173Z,100433.97
2023-02-03T19:43:35.333Z,100453.41
2023-02-03T19:46:06.391Z,100436.00
2023-02-03T19:48:33.264Z,100439.84
2023-02-03T19:51:00.117Z,100464.81
2023-02-03T19:53:30.317Z,100472.81
2023-02-03T19:55:57.334Z,100476.88
2023-02-03T19:58:24.317Z,100477.69
2023-02-03T20:00:54.481Z,100488.31
2023-02-03T20:03:30.658Z,100498.69
2023-02-03T20:05:58.004Z,100500.38
2023-02-03T20:08:25.156Z,100531.03
2023-02-03T20:10:52.820Z,100534.06
2023-02-03T20:13:19.552Z,100558.69
2023-02-03T20:15:55.233Z,100562.38
2023-02-03T20:18:21.961Z,100554.34
2023-02-03T20:20:53.406Z,100568.09
2023-02-03T20:23:20.104Z,100578.66
2023-02-03T20:25:53.753Z,100576.47
2023-02-03T20:28:23.112Z,100585.19
2023-02-03T20:30:58.073Z,100588.53
2023-02-03T20:33:27.793Z,100598.28
2023-02-03T20:35:55.060Z,100579.00
2023-02-03T20:38:21.840Z,100598.63
2023-02-03T20:40:49.357Z,100618.91
2023-02-03T20:43:25.517Z,100618.75
2023-02-03T20:45:53.171Z,100602.16
2023-02-03T20:48:25.768Z,100607.84
2023-02-03T20:50:53.014Z,100628.47
2023-02-03T20:53:23.283Z,100613.38
2023-02-03T20:55:51.326Z,100622.75
2023-02-03T20:58:19.580Z,100632.13
2023-02-03T21:00:50.432Z,100618.41
2023-02-03T21:03:38.342Z,100616.56
2023-02-03T21:06:16.644Z,100612.69
2023-02-03T21:08:44.268Z,100619.41
2023-02-03T21:11:14.318Z,100621.41
2023-02-03T21:16:21.235Z,100629.97
2023-02-03T21:18:55.064Z,100629.97
2023-02-03T21:21:33.612Z,100650.91
2023-02-03T21:24:00.960Z,100625.94
2023-02-03T21:26:34.498Z,100628.78
2023-02-03T21:29:04.951Z,100630.31
2023-02-03T21:31:34.179Z,100644.53
2023-02-03T21:34:03.629Z,100656.94
2023-02-03T21:36:35.679Z,100649.41
2023-02-03T21:39:02.765Z,100647.22
2023-02-03T21:41:35.532Z,100631.50
2023-02-03T21:44:02.263Z,100637.84
2023-02-03T21:46:33.038Z,100647.22
2023-02-03T21:49:04.682Z,100667.81
2023-02-03T21:51:38.189Z,100661.97
2023-02-03T21:54:23.001Z,100654.94
2023-02-03T21:56:54.235Z,100658.97
2023-02-03T21:59:28.573Z,100659.78
2023-02-03T22:01:57.785Z,100657.78
2023-02-03T22:04:35.066Z,100649.22
2023-02-03T22:07:01.904Z,100649.03
2023-02-03T22:09:28.689Z,100672.50
2023-02-03T22:11:55.382Z,100679.72
2023-02-03T22:14:22.465Z,100686.41
2023-02-03T22:16:49.587Z,100686.41
2023-02-03T22:19:19.047Z,100689.78
2023-02-03T22:21:47.958Z,100698.97
2023-02-03T22:24:14.678Z,100691.59
2023-02-03T22:29:06.848Z,100701.78
2023-02-03T22:31:33.671Z,100695.78
2023-02-03T22:34:00.888Z,100701.47
2023-02-03T22:36:27.864Z,100707.16
2023-02-03T22:38:54.598Z,100709.31
2023-02-03T22:41:21.774Z,100707.47
2023-02-03T22:43:48.543Z,100715.88
2023-02-03T22:46:15.598Z,100722.72
2023-02-03T22:48:42.318Z,100724.19
2023-02-03T22:51:09.361Z,100731.19
2023-02-03T22:53:36.096Z,100730.16
2023-02-03T22:56:03.190Z,100733.34
2023-02-03T22:58:29.971Z,100736.03
2023-02-03T23:00:57.001Z,100730.03
2023-02-03T23:03:23.764Z,100740.25
2023-02-03T23:05:50.638Z,100746.31
2023-02-03T23:08:17.320Z,100741.25
2023-02-03T23:10:44.119Z,100726.81
2023-02-03T23:13:10.901Z,100741.59
2023-02-03T23:18:10.469Z,100738.03
2023-02-03T23:20:37.574Z,100739.22
2023-02-03T23:23:04.184Z,100735.13
2023-02-03T23:25:31.785Z,100740.47
2023-02-03T23:27:59.705Z,100744.25
2023-02-03T23:30:26.557Z,100756.50
2023-02-03T23:32:54.538Z,100761.94
2023-02-03T23:38:09.693Z,100739.47
2023-02-03T23:40:40.240Z,100750.25
2023-02-03T23:43:06.884Z,100746.84
2023-02-03T23:45:33.715Z,100750.56
2023-02-03T23:48:00.783Z,100751.81
2023-02-03T23:50:27.401Z,100765.91
2023-02-03T23:52:54.138Z,100756.47
2023-02-03T23:55:22.012Z,100754.06
2023-02-03T23:57:48.890Z,100757.72
